sensor_id;sensor_type;location;lat;lon;timestamp;pressure;altitude;pressure_sealevel;temperature;humidity
75740;BME280;64357;51.344;6.550;2022-12-18T00:01:12;102587.97;;;-3.78;80.45
75740;BME280;64357;51.344;6.550;2022-12-18T00:03:38;102573.25;;;-3.90;80.46
75740;BME280;64357;51.344;6.550;2022-12-18T00:06:04;102580.94;;;-3.85;80.27
75740;BME280;64357;51.344;6.550;2022-12-18T00:08:29;102577.88;;;-3.88;79.55
75740;BME280;64357;51.344;6.550;2022-12-18T00:10:55;102579.56;;;-3.92;79.59
75740;BME280;64357;51.344;6.550;2022-12-18T00:13:20;102580.09;;;-3.89;79.54
75740;BME280;64357;51.344;6.550;2022-12-18T00:15:46;102579.56;;;-3.92;79.81
75740;BME280;64357;51.344;6.550;2022-12-18T00:18:11;102589.53;;;-3.92;79.95
75740;BME280;64357;51.344;6.550;2022-12-18T00:20:39;102581.75;;;-3.94;79.86
75740;BME280;64357;51.344;6.550;2022-12-18T00:23:06;102583.59;;;-3.93;79.60
75740;BME280;64357;51.344;6.550;2022-12-18T00:25:36;102576.75;;;-3.94;79.78
75740;BME280;64357;51.344;6.550;2022-12-18T00:28:03;102568.63;;;-3.93;79.66
75740;BME280;64357;51.344;6.550;2022-12-18T00:30:29;102568.91;;;-3.91;79.62
75740;BME280;64357;51.344;6.550;2022-12-18T00:32:54;102565.19;;;-3.93;79.41
75740;BME280;64357;51.344;6.550;2022-12-18T00:35:20;102551.13;;;-3.93;79.46
75740;BME280;64357;51.344;6.550;2022-12-18T00:37:45;102551.72;;;-3.90;79.30
75740;BME280;64357;51.344;6.550;2022-12-18T00:40:11;102546.81;;;-3.94;79.68
75740;BME280;64357;51.344;6.550;2022-12-18T00:42:37;102551.78;;;-3.94;80.12
75740;BME280;64357;51.344;6.550;2022-12-18T00:45:21;102550.88;;;-3.94;80.31
75740;BME280;64357;51.344;6.550;2022-12-18T00:47:49;102539.69;;;-3.96;80.03
75740;BME280;64357;51.344;6.550;2022-12-18T00:50:17;102552.44;;;-3.95;79.94
75740;BME280;64357;51.344;6.550;2022-12-18T00:52:44;102536.16;;;-4.07;80.56
75740;BME280;64357;51.344;6.550;2022-12-18T00:55:13;102560.50;;;-3.92;80.16
75740;BME280;64357;51.344;6.550;2022-12-18T00:57:38;102561.88;;;-3.98;80.02
75740;BME280;64357;51.344;6.550;2022-12-18T01:00:05;102557.16;;;-3.96;79.79
75740;BME280;64357;51.344;6.550;2022-12-18T01:02:34;102540.69;;;-4.00;79.36
75740;BME280;64357;51.344;6.550;2022-12-18T01:05:02;102541.34;;;-4.01;79.12
75740;BME280;64357;51.344;6.550;2022-12-18T01:07:27;102542.91;;;-4.02;79.64
75740;BME280;64357;51.344;6.550;2022-12-18T01:09:52;102551.31;;;-4.01;79.80
75740;BME280;64357;51.344;6.550;2022-12-18T01:12:18;102558.16;;;-4.00;79.62
75740;BME280;64357;51.344;6.550;2022-12-18T01:14:43;102561.31;;;-4.01;79.78
75740;BME280;64357;51.344;6.550;2022-12-18T01:17:08;102551.06;;;-4.03;78.95
75740;BME280;64357;51.344;6.550;2022-12-18T01:19:34;102550.03;;;-3.99;79.57
75740;BME280;64357;51.344;6.550;2022-12-18T01:22:01;102548.09;;;-3.96;79.06
75740;BME280;64357;51.344;6.550;2022-12-18T01:24:29;102552.53;;;-3.99;79.43
75740;BME280;64357;51.344;6.550;2022-12-18T01:26:54;102548.19;;;-4.00;79.84
75740;BME280;64357;51.344;6.550;2022-12-18T01:29:20;102528.59;;;-4.03;79.71
75740;BME280;64357;51.344;6.550;2022-12-18T01:31:48;102543.84;;;-4.01;79.39
75740;BME280;64357;51.344;6.550;2022-12-18T01:34:13;102551.59;;;-3.99;79.39
75740;BME280;64357;51.344;6.550;2022-12-18T01:36:38;102548.47;;;-3.98;79.35
75740;BME280;64357;51.344;6.550;2022-12-18T01:39:10;102554.03;;;-3.95;79.11
75740;BME280;64357;51.344;6.550;2022-12-18T01:41:37;102545.88;;;-3.94;78.81
75740;BME280;64357;51.344;6.550;2022-12-18T01:47:22;102546.81;;;-3.94;78.66
75740;BME280;64357;51.344;6.550;2022-12-18T01:49:48;102546.53;;;-3.95;79.40
75740;BME280;64357;51.344;6.550;2022-12-18T01:52:14;102552.53;;;-3.99;79.34
75740;BME280;64357;51.344;6.550;2022-12-18T01:54:40;102558.75;;;-3.97;79.06
75740;BME280;64357;51.344;6.550;2022-12-18T01:57:06;102555.66;;;-4.00;79.00
75740;BME280;64357;51.344;6.550;2022-12-18T01:59:33;102565.50;;;-3.92;78.60
75740;BME280;64357;51.344;6.550;2022-12-18T02:01:59;102570.19;;;-3.93;79.13
75740;BME280;64357;51.344;6.550;2022-12-18T02:04:27;102570.50;;;-3.92;78.61
75740;BME280;64357;51.344;6.550;2022-12-18T02:09:59;102564.19;;;-3.90;78.68
75740;BME280;64357;51.344;6.550;2022-12-18T02:12:39;102558.56;;;-3.89;77.97
75740;BME280;64357;51.344;6.550;2022-12-18T02:15:14;102558.56;;;-3.89;78.71
75740;BME280;64357;51.344;6.550;2022-12-18T02:17:55;102554.78;;;-3.87;78.84
75740;BME280;64357;51.344;6.550;2022-12-18T02:20:33;102561.91;;;-3.84;78.21
75740;BME280;64357;51.344;6.550;2022-12-18T02:23:04;102553.41;;;-3.81;78.40
75740;BME280;64357;51.344;6.550;2022-12-18T02:28:23;102549.03;;;-3.82;78.16
75740;BME280;64357;51.344;6.550;2022-12-18T02:30:55;102547.84;;;-3.84;78.00
75740;BME280;64357;51.344;6.550;2022-12-18T02:33:22;102540.34;;;-3.84;78.25
75740;BME280;64357;51.344;6.550;2022-12-18T02:35:52;102558.94;;;-3.78;77.44
75740;BME280;64357;51.344;6.550;2022-12-18T02:38:19;102549.88;;;-3.77;77.43
75740;BME280;64357;51.344;6.550;2022-12-18T02:40:48;102542.78;;;-3.80;77.52
75740;BME280;64357;51.344;6.550;2022-12-18T02:43:15;102539.34;;;-3.80;78.06
75740;BME280;64357;51.344;6.550;2022-12-18T02:46:00;102545.47;;;-3.74;77.04
75740;BME280;64357;51.344;6.550;2022-12-18T02:48:33;102539.53;;;-3.74;77.17
75740;BME280;64357;51.344;6.550;2022-12-18T02:51:34;102544.63;;;-3.79;78.32
75740;BME280;64357;51.344;6.550;2022-12-18T02:54:09;102531.47;;;-3.78;77.56
75740;BME280;64357;51.344;6.550;2022-12-18T02:56:46;102537.59;;;-3.71;77.21
75740;BME280;64357;51.344;6.550;2022-12-18T02:59:23;102536.94;;;-3.70;76.72
75740;BME280;64357;51.344;6.550;2022-12-18T03:02:06;102545.00;;;-3.67;76.99
75740;BME280;64357;51.344;6.550;2022-12-18T03:04:45;102539.06;;;-3.68;76.76
75740;BME280;64357;51.344;6.550;2022-12-18T03:07:34;102535.28;;;-3.66;76.70
75740;BME280;64357;51.344;6.550;2022-12-18T03:10:02;102534.94;;;-3.63;77.18
75740;BME280;64357;51.344;6.550;2022-12-18T03:12:40;102528.72;;;-3.65;76.88
75740;BME280;64357;51.344;6.550;2022-12-18T03:15:16;102532.44;;;-3.63;76.76
75740;BME280;64357;51.344;6.550;2022-12-18T03:17:50;102530.47;;;-3.60;76.79
75740;BME280;64357;51.344;6.550;2022-12-18T03:20:21;102524.56;;;-3.61;76.69
75740;BME280;64357;51.344;6.550;2022-12-18T03:22:51;102523.91;;;-3.60;76.27
75740;BME280;64357;51.344;6.550;2022-12-18T03:25:22;102518.44;;;-3.67;76.79
75740;BME280;64357;51.344;6.550;2022-12-18T03:27:55;102518.97;;;-3.64;76.83
75740;BME280;64357;51.344;6.550;2022-12-18T03:30:22;102516.78;;;-3.62;76.45
75740;BME280;64357;51.344;6.550;2022-12-18T03:32:53;102518.63;;;-3.61;76.40
75740;BME280;64357;51.344;6.550;2022-12-18T03:35:24;102527.97;;;-3.60;76.36
75740;BME280;64357;51.344;6.550;2022-12-18T03:37:51;102527.22;;;-3.55;76.06
75740;BME280;64357;51.344;6.550;2022-12-18T03:40:23;102522.50;;;-3.54;75.60
75740;BME280;64357;51.344;6.550;2022-12-18T03:42:56;102527.22;;;-3.55;76.70
75740;BME280;64357;51.344;6.550;2022-12-18T03:45:34;102519.09;;;-3.54;75.88
75740;BME280;64357;51.344;6.550;2022-12-18T03:48:04;102526.22;;;-3.52;75.92
75740;BME280;64357;51.344;6.550;2022-12-18T03:51:21;102523.34;;;-3.49;75.84
75740;BME280;64357;51.344;6.550;2022-12-18T03:53:39;102524.25;;;-3.49;76.49
75740;BME280;64357;51.344;6.550;2022-12-18T03:56:07;102518.34;;;-3.49;76.41
75740;BME280;64357;51.344;6.550;2022-12-18T03:58:35;102513.75;;;-3.52;76.96
75740;BME280;64357;51.344;6.550;2022-12-18T04:01:08;102497.44;;;-3.50;77.06
75740;BME280;64357;51.344;6.550;2022-12-18T04:03:35;102505.78;;;-3.45;76.42
75740;BME280;64357;51.344;6.550;2022-12-18T04:06:01;102494.28;;;-3.49;76.20
75740;BME280;64357;51.344;6.550;2022-12-18T04:08:28;102496.03;;;-3.43;76.39
75740;BME280;64357;51.344;6.550;2022-12-18T04:10:54;102491.31;;;-3.42;76.02
75740;BME280;64357;51.344;6.550;2022-12-18T04:13:38;102498.47;;;-3.39;75.47
75740;BME280;64357;51.344;6.550;2022-12-18T04:16:04;102496.75;;;-3.35;75.31
75740;BME280;64357;51.344;6.550;2022-12-18T04:18:30;102501.75;;;-3.35;75.94
75740;BME280;64357;51.344;6.550;2022-12-18T04:20:55;102488.91;;;-3.32;75.16
75740;BME280;64357;51.344;6.550;2022-12-18T04:23:21;102473.75;;;-3.38;75.37
75740;BME280;64357;51.344;6.550;2022-12-18T04:25:48;102486.94;;;-3.29;74.88
75740;BME280;64357;51.344;6.550;2022-12-18T04:28:14;102492.25;;;-3.28;75.49
75740;BME280;64357;51.344;6.550;2022-12-18T04:30:39;102489.63;;;-3.24;75.11
75740;BME280;64357;51.344;6.550;2022-12-18T04:33:11;102490.53;;;-3.23;75.27
75740;BME280;64357;51.344;6.550;2022-12-18T04:35:37;102486.84;;;-3.25;75.40
75740;BME280;64357;51.344;6.550;2022-12-18T04:38:05;102483.16;;;-3.27;74.51
75740;BME280;64357;51.344;6.550;2022-12-18T04:40:34;102488.44;;;-3.26;74.96
75740;BME280;64357;51.344;6.550;2022-12-18T04:43:00;102485.94;;;-3.26;74.95
75740;BME280;64357;51.344;6.550;2022-12-18T04:45:27;102483.81;;;-3.28;75.65
75740;BME280;64357;51.344;6.550;2022-12-18T04:47:55;102473.81;;;-3.28;75.68
75740;BME280;64357;51.344;6.550;2022-12-18T04:50:21;102486.84;;;-3.25;75.42
75740;BME280;64357;51.344;6.550;2022-12-18T04:52:47;102472.13;;;-3.24;75.14
75740;BME280;64357;51.344;6.550;2022-12-18T04:55:14;102477.69;;;-3.20;74.93
75740;BME280;64357;51.344;6.550;2022-12-18T04:57:42;102465.09;;;-3.16;74.80
75740;BME280;64357;51.344;6.550;2022-12-18T05:00:08;102460.34;;;-3.15;74.89
75740;BME280;64357;51.344;6.550;2022-12-18T05:02:33;102460.34;;;-3.15;74.51
75740;BME280;64357;51.344;6.550;2022-12-18T05:04:59;102456.09;;;-3.20;75.49
75740;BME280;64357;51.344;6.550;2022-12-18T05:07:24;102464.53;;;-3.19;75.58
75740;BME280;64357;51.344;6.550;2022-12-18T05:09:50;102468.50;;;-3.16;75.29
75740;BME280;64357;51.344;6.550;2022-12-18T05:12:15;102466.09;;;-3.20;76.03
75740;BME280;64357;51.344;6.550;2022-12-18T05:14:40;102460.72;;;-3.17;74.75
75740;BME280;64357;51.344;6.550;2022-12-18T05:17:08;102463.59;;;-3.20;75.59
75740;BME280;64357;51.344;6.550;2022-12-18T05:19:34;102465.84;;;-3.22;75.25
75740;BME280;64357;51.344;6.550;2022-12-18T05:21:59;102468.03;;;-3.23;74.92
75740;BME280;64357;51.344;6.550;2022-12-18T05:24:26;102468.16;;;-3.27;75.28
75740;BME280;64357;51.344;6.550;2022-12-18T05:26:52;102471.84;;;-3.25;75.68
75740;BME280;64357;51.344;6.550;2022-12-18T05:29:17;102475.94;;;-3.26;75.60
75740;BME280;64357;51.344;6.550;2022-12-18T05:31:43;102479.09;;;-3.27;75.58
75740;BME280;64357;51.344;6.550;2022-12-18T05:34:08;102498.81;;;-3.28;75.22
75740;BME280;64357;51.344;6.550;2022-12-18T05:36:33;102498.16;;;-3.27;75.57
75740;BME280;64357;51.344;6.550;2022-12-18T05:39:02;102500.66;;;-3.27;75.33
75740;BME280;64357;51.344;6.550;2022-12-18T05:41:27;102489.16;;;-3.31;74.93
75740;BME280;64357;51.344;6.550;2022-12-18T05:43:54;102496.13;;;-3.34;75.63
75740;BME280;64357;51.344;6.550;2022-12-18T05:46:19;102506.00;;;-3.30;75.60
75740;BME280;64357;51.344;6.550;2022-12-18T05:48:47;102502.50;;;-3.26;75.64
75740;BME280;64357;51.344;6.550;2022-12-18T05:51:15;102503.31;;;-3.22;75.42
75740;BME280;64357;51.344;6.550;2022-12-18T05:53:45;102518.84;;;-3.18;75.39
75740;BME280;64357;51.344;6.550;2022-12-18T05:56:17;102515.06;;;-3.16;75.03
75740;BME280;64357;51.344;6.550;2022-12-18T05:58:43;102528.09;;;-3.13;74.80
75740;BME280;64357;51.344;6.550;2022-12-18T06:01:17;102525.50;;;-3.09;74.54
75740;BME280;64357;51.344;6.550;2022-12-18T06:03:46;102533.66;;;-3.10;75.01
75740;BME280;64357;51.344;6.550;2022-12-18T06:06:15;102532.09;;;-3.10;74.61
75740;BME280;64357;51.344;6.550;2022-12-18T06:08:43;102537.34;;;-3.08;74.84
75740;BME280;64357;51.344;6.550;2022-12-18T06:11:15;102535.78;;;-3.08;74.65
75740;BME280;64357;51.344;6.550;2022-12-18T06:13:41;102523.94;;;-3.09;74.71
75740;BME280;64357;51.344;6.550;2022-12-18T06:16:09;102534.84;;;-3.08;75.24
75740;BME280;64357;51.344;6.550;2022-12-18T06:18:38;102526.69;;;-3.07;75.07
75740;BME280;64357;51.344;6.550;2022-12-18T06:21:04;102531.69;;;-3.07;74.44
75740;BME280;64357;51.344;6.550;2022-12-18T06:23:31;102525.78;;;-3.08;74.83
75740;BME280;64357;51.344;6.550;2022-12-18T06:25:58;102513.38;;;-3.12;74.54
75740;BME280;64357;51.344;6.550;2022-12-18T06:28:27;102521.25;;;-3.14;75.32
75740;BME280;64357;51.344;6.550;2022-12-18T06:30:53;102505.09;;;-3.16;75.33
75740;BME280;64357;51.344;6.550;2022-12-18T06:33:18;102504.59;;;-3.10;74.24
75740;BME280;64357;51.344;6.550;2022-12-18T06:35:43;102493.69;;;-3.10;74.57
75740;BME280;64357;51.344;6.550;2022-12-18T06:38:11;102480.53;;;-3.09;74.56
75740;BME280;64357;51.344;6.550;2022-12-18T06:40:37;102480.78;;;-3.08;75.36
75740;BME280;64357;51.344;6.550;2022-12-18T06:43:04;102475.34;;;-3.15;75.16
75740;BME280;64357;51.344;6.550;2022-12-18T06:45:30;102469.44;;;-3.15;74.74
75740;BME280;64357;51.344;6.550;2022-12-18T06:47:55;102471.28;;;-3.14;75.12
75740;BME280;64357;51.344;6.550;2022-12-18T06:50:20;102472.38;;;-3.08;75.25
75740;BME280;64357;51.344;6.550;2022-12-18T06:52:45;102470.13;;;-3.07;74.81
75740;BME280;64357;51.344;6.550;2022-12-18T06:55:11;102473.47;;;-3.02;74.18
75740;BME280;64357;51.344;6.550;2022-12-18T06:57:37;102469.94;;;-2.99;74.92
75740;BME280;64357;51.344;6.550;2022-12-18T07:00:08;102463.63;;;-2.97;74.55
75740;BME280;64357;51.344;6.550;2022-12-18T07:02:34;102461.06;;;-3.06;75.12
75740;BME280;64357;51.344;6.550;2022-12-18T07:05:00;102473.56;;;-3.06;74.71
75740;BME280;64357;51.344;6.550;2022-12-18T07:07:25;102465.69;;;-3.04;73.73
75740;BME280;64357;51.344;6.550;2022-12-18T07:09:51;102467.38;;;-3.08;74.14
75740;BME280;64357;51.344;6.550;2022-12-18T07:12:16;102456.03;;;-3.16;74.13
75740;BME280;64357;51.344;6.550;2022-12-18T07:14:42;102471.94;;;-3.15;74.88
75740;BME280;64357;51.344;6.550;2022-12-18T07:17:07;102476.38;;;-3.18;74.60
75740;BME280;64357;51.344;6.550;2022-12-18T07:19:33;102481.00;;;-3.16;74.24
75740;BME280;64357;51.344;6.550;2022-12-18T07:21:59;102476.00;;;-3.16;74.41
75740;BME280;64357;51.344;6.550;2022-12-18T07:24:27;102474.25;;;-3.21;73.88
75740;BME280;64357;51.344;6.550;2022-12-18T07:26:52;102477.59;;;-3.16;74.47
75740;BME280;64357;51.344;6.550;2022-12-18T07:29:18;102474.44;;;-3.15;73.86
75740;BME280;64357;51.344;6.550;2022-12-18T07:31:44;102458.22;;;-3.17;74.22
75740;BME280;64357;51.344;6.550;2022-12-18T07:34:11;102464.53;;;-3.19;74.70
75740;BME280;64357;51.344;6.550;2022-12-18T07:36:37;102461.00;;;-3.16;74.42
75740;BME280;64357;51.344;6.550;2022-12-18T07:39:02;102459.69;;;-3.14;73.79
75740;BME280;64357;51.344;6.550;2022-12-18T07:41:30;102454.44;;;-3.15;74.02
75740;BME280;64357;51.344;6.550;2022-12-18T07:43:57;102452.97;;;-3.19;73.90
75740;BME280;64357;51.344;6.550;2022-12-18T07:46:23;102466.28;;;-3.14;73.69
75740;BME280;64357;51.344;6.550;2022-12-18T07:48:48;102455.88;;;-3.12;73.51
75740;BME280;64357;51.344;6.550;2022-12-18T07:51:14;102469.97;;;-3.12;73.93
75740;BME280;64357;51.344;6.550;2022-12-18T07:53:40;102460.63;;;-3.13;73.50
75740;BME280;64357;51.344;6.550;2022-12-18T07:56:08;102442.59;;;-3.16;73.76
75740;BME280;64357;51.344;6.550;2022-12-18T07:58:34;102437.88;;;-3.15;73.42
75740;BME280;64357;51.344;6.550;2022-12-18T08:01:07;102438.69;;;-3.10;73.95
75740;BME280;64357;51.344;6.550;2022-12-18T08:03:33;102446.53;;;-3.13;74.17
75740;BME280;64357;51.344;6.550;2022-12-18T08:06:03;102434.06;;;-3.13;74.27
75740;BME280;64357;51.344;6.550;2022-12-18T08:08:29;102427.03;;;-3.19;73.77
75740;BME280;64357;51.344;6.550;2022-12-18T08:10:57;102439.97;;;-3.12;73.98
75740;BME280;64357;51.344;6.550;2022-12-18T08:13:23;102424.63;;;-3.10;73.74
75740;BME280;64357;51.344;6.550;2022-12-18T08:15:59;102414.22;;;-3.07;74.04
75740;BME280;64357;51.344;6.550;2022-12-18T08:18:25;102411.97;;;-3.06;74.08
75740;BME280;64357;51.344;6.550;2022-12-18T08:20:54;102397.28;;;-3.04;74.28
75740;BME280;64357;51.344;6.550;2022-12-18T08:23:20;102382.66;;;-3.07;73.95
75740;BME280;64357;51.344;6.550;2022-12-18T08:25:45;102398.63;;;-2.97;73.65
75740;BME280;64357;51.344;6.550;2022-12-18T08:28:11;102399.97;;;-2.89;73.76
75740;BME280;64357;51.344;6.550;2022-12-18T08:30:38;102406.03;;;-2.83;73.48
75740;BME280;64357;51.344;6.550;2022-12-18T08:33:04;102401.19;;;-2.77;72.40
75740;BME280;64357;51.344;6.550;2022-12-18T08:35:29;102415.19;;;-2.74;72.99
75740;BME280;64357;51.344;6.550;2022-12-18T08:37:55;102407.44;;;-2.65;73.10
75740;BME280;64357;51.344;6.550;2022-12-18T08:40:20;102409.94;;;-2.65;71.94
75740;BME280;64357;51.344;6.550;2022-12-18T08:42:45;102411.31;;;-2.58;71.35
75740;BME280;64357;51.344;6.550;2022-12-18T08:45:33;102401.56;;;-2.56;71.65
75740;BME280;64357;51.344;6.550;2022-12-18T08:48:01;102406.31;;;-2.48;72.15
75740;BME280;64357;51.344;6.550;2022-12-18T08:50:28;102402.38;;;-2.42;71.19
75740;BME280;64357;51.344;6.550;2022-12-18T08:52:58;102404.34;;;-2.35;71.14
75740;BME280;64357;51.344;6.550;2022-12-18T08:55:23;102391.47;;;-2.33;70.79
75740;BME280;64357;51.344;6.550;2022-12-18T08:57:50;102401.88;;;-2.26;71.06
75740;BME280;64357;51.344;6.550;2022-12-18T09:00:17;102394.94;;;-2.23;70.43
75740;BME280;64357;51.344;6.550;2022-12-18T09:02:43;102404.13;;;-2.18;70.83
75740;BME280;64357;51.344;6.550;2022-12-18T09:05:10;102399.41;;;-2.16;70.25
75740;BME280;64357;51.344;6.550;2022-12-18T09:07:36;102395.84;;;-2.12;70.10
75740;BME280;64357;51.344;6.550;2022-12-18T09:10:04;102398.63;;;-2.11;70.69
75740;BME280;64357;51.344;6.550;2022-12-18T09:12:29;102405.19;;;-2.11;70.29
75740;BME280;64357;51.344;6.550;2022-12-18T09:14:55;102402.31;;;-2.09;70.18
75740;BME280;64357;51.344;6.550;2022-12-18T09:17:21;102397.03;;;-2.10;70.10
75740;BME280;64357;51.344;6.550;2022-12-18T09:19:47;102399.94;;;-2.03;70.58
75740;BME280;64357;51.344;6.550;2022-12-18T09:22:12;102400.09;;;-1.98;69.79
75740;BME280;64357;51.344;6.550;2022-12-18T09:24:37;102407.06;;;-1.91;69.93
75740;BME280;64357;51.344;6.550;2022-12-18T09:27:03;102396.00;;;-1.88;69.50
75740;BME280;64357;51.344;6.550;2022-12-18T09:29:30;102396.94;;;-1.87;68.99
75740;BME280;64357;51.344;6.550;2022-12-18T09:31:55;102388.34;;;-1.83;68.96
75740;BME280;64357;51.344;6.550;2022-12-18T09:34:21;102376.75;;;-1.83;68.60
75740;BME280;64357;51.344;6.550;2022-12-18T09:36:47;102382.41;;;-1.74;68.84
75740;BME280;64357;51.344;6.550;2022-12-18T09:39:13;102376.63;;;-1.69;69.22
75740;BME280;64357;51.344;6.550;2022-12-18T09:42:02;102375.84;;;-1.64;69.41
75740;BME280;64357;51.344;6.550;2022-12-18T09:44:48;102377.91;;;-1.62;68.13
75740;BME280;64357;51.344;6.550;2022-12-18T09:47:34;102370.53;;;-1.56;69.01
75740;BME280;64357;51.344;6.550;2022-12-18T09:50:04;102371.19;;;-1.57;68.24
75740;BME280;64357;51.344;6.550;2022-12-18T09:52:39;102362.22;;;-1.51;68.70
75740;BME280;64357;51.344;6.550;2022-12-18T09:57:54;102371.16;;;-1.47;67.43
75740;BME280;64357;51.344;6.550;2022-12-18T10:00:23;102356.41;;;-1.46;67.26
75740;BME280;64357;51.344;6.550;2022-12-18T10:02:51;102356.00;;;-1.43;67.06
75740;BME280;64357;51.344;6.550;2022-12-18T10:07:55;102357.28;;;-1.36;66.79
75740;BME280;64357;51.344;6.550;2022-12-18T10:18:04;102342.38;;;-1.30;67.17
75740;BME280;64357;51.344;6.550;2022-12-18T10:25:54;102340.72;;;-1.10;66.11
75740;BME280;64357;51.344;6.550;2022-12-18T10:28:21;102321.47;;;-1.15;65.89
75740;BME280;64357;51.344;6.550;2022-12-18T10:30:50;102300.09;;;-1.13;66.58
75740;BME280;64357;51.344;6.550;2022-12-18T10:33:19;102310.91;;;-1.09;66.42
75740;BME280;64357;51.344;6.550;2022-12-18T10:35:52;102320.91;;;-1.09;65.67
75740;BME280;64357;51.344;6.550;2022-12-18T10:40:53;102316.50;;;-1.00;65.82
75740;BME280;64357;51.344;6.550;2022-12-18T10:43:23;102298.16;;;-0.95;65.28
75740;BME280;64357;51.344;6.550;2022-12-18T10:48:26;102282.59;;;-0.98;65.07
75740;BME280;64357;51.344;6.550;2022-12-18T10:50:55;102284.53;;;-0.91;65.00
75740;BME280;64357;51.344;6.550;2022-12-18T10:53:28;102280.19;;;-0.92;65.27
75740;BME280;64357;51.344;6.550;2022-12-18T10:55:56;102274.25;;;-0.93;65.03
75740;BME280;64357;51.344;6.550;2022-12-18T10:58:32;102277.13;;;-0.86;64.51
75740;BME280;64357;51.344;6.550;2022-12-18T11:01:16;102282.38;;;-0.84;64.96
75740;BME280;64357;51.344;6.550;2022-12-18T11:06:22;102292.63;;;-0.73;65.04
75740;BME280;64357;51.344;6.550;2022-12-18T11:11:24;102269.78;;;-0.59;64.92
75740;BME280;64357;51.344;6.550;2022-12-18T11:14:00;102275.91;;;-0.63;64.64
75740;BME280;64357;51.344;6.550;2022-12-18T11:16:33;102273.66;;;-0.61;64.07
75740;BME280;64357;51.344;6.550;2022-12-18T11:19:17;102266.31;;;-0.50;63.96
75740;BME280;64357;51.344;6.550;2022-12-18T11:21:44;102266.97;;;-0.51;63.33
75740;BME280;64357;51.344;6.550;2022-12-18T11:24:41;102255.59;;;-0.49;63.54
75740;BME280;64357;51.344;6.550;2022-12-18T11:27:17;102256.19;;;-0.56;63.47
75740;BME280;64357;51.344;6.550;2022-12-18T11:29:45;102255.59;;;-0.49;64.03
75740;BME280;64357;51.344;6.550;2022-12-18T11:34:41;102244.47;;;-0.45;63.70
75740;BME280;64357;51.344;6.550;2022-12-18T11:37:10;102227.16;;;-0.44;63.65
75740;BME280;64357;51.344;6.550;2022-12-18T11:39:44;102219.53;;;-0.49;62.84
75740;BME280;64357;51.344;6.550;2022-12-18T11:47:55;102240.28;;;-0.50;64.02
75740;BME280;64357;51.344;6.550;2022-12-18T11:50:25;102218.56;;;-0.40;64.49
75740;BME280;64357;51.344;6.550;2022-12-18T11:52:52;102213.84;;;-0.48;64.13
75740;BME280;64357;51.344;6.550;2022-12-18T12:12:51;102195.69;;;-0.27;64.39
75740;BME280;64357;51.344;6.550;2022-12-18T12:16:22;102203.06;;;-0.22;63.36
75740;BME280;64357;51.344;6.550;2022-12-18T12:18:22;102195.16;;;-0.30;63.35
75740;BME280;64357;51.344;6.550;2022-12-18T12:26:12;102170.66;;;-0.36;62.68
75740;BME280;64357;51.344;6.550;2022-12-18T12:31:23;102182.97;;;-0.38;62.73
75740;BME280;64357;51.344;6.550;2022-12-18T12:36:33;102158.63;;;-0.33;62.51
75740;BME280;64357;51.344;6.550;2022-12-18T12:39:08;102157.94;;;-0.32;63.22
75740;BME280;64357;51.344;6.550;2022-12-18T12:41:36;102165.47;;;-0.32;62.89
75740;BME280;64357;51.344;6.550;2022-12-18T12:44:25;102160.91;;;-0.35;63.62
75740;BME280;64357;51.344;6.550;2022-12-18T12:46:58;102177.13;;;-0.33;63.60
75740;BME280;64357;51.344;6.550;2022-12-18T12:49:27;102164.72;;;-0.37;63.54
75740;BME280;64357;51.344;6.550;2022-12-18T12:52:00;102170.25;;;-0.34;63.42
75740;BME280;64357;51.344;6.550;2022-12-18T12:54:33;102171.03;;;-0.44;63.88
75740;BME280;64357;51.344;6.550;2022-12-18T13:02:24;102178.56;;;-0.44;62.83
75740;BME280;64357;51.344;6.550;2022-12-18T13:07:33;102163.97;;;-0.41;63.75
75740;BME280;64357;51.344;6.550;2022-12-18T13:13:11;102145.47;;;-0.42;63.82
75740;BME280;64357;51.344;6.550;2022-12-18T13:15:41;102143.16;;;-0.46;63.31
75740;BME280;64357;51.344;6.550;2022-12-18T13:31:01;102113.06;;;-0.46;63.54
75740;BME280;64357;51.344;6.550;2022-12-18T13:36:49;102097.91;;;-0.51;63.93
75740;BME280;64357;51.344;6.550;2022-12-18T13:39:50;102087.38;;;-0.55;63.56
75740;BME280;64357;51.344;6.550;2022-12-18T13:48:24;102088.78;;;-0.51;63.33
75740;BME280;64357;51.344;6.550;2022-12-18T13:50:58;102081.03;;;-0.52;63.95
75740;BME280;64357;51.344;6.550;2022-12-18T13:53:30;102080.75;;;-0.54;63.76
75740;BME280;64357;51.344;6.550;2022-12-18T13:55:58;102083.34;;;-0.48;64.05
75740;BME280;64357;51.344;6.550;2022-12-18T13:58:26;102089.88;;;-0.55;64.81
75740;BME280;64357;51.344;6.550;2022-12-18T14:00:52;102081.94;;;-0.52;64.50
75740;BME280;64357;51.344;6.550;2022-12-18T14:03:23;102083.09;;;-0.50;64.79
75740;BME280;64357;51.344;6.550;2022-12-18T14:06:03;102076.91;;;-0.52;64.84
75740;BME280;64357;51.344;6.550;2022-12-18T14:08:38;102081.75;;;-0.48;65.53
75740;BME280;64357;51.344;6.550;2022-12-18T14:11:05;102068.47;;;-0.52;65.77
75740;BME280;64357;51.344;6.550;2022-12-18T14:13:41;102068.31;;;-0.64;64.77
75740;BME280;64357;51.344;6.550;2022-12-18T14:16:07;102066.47;;;-0.65;64.56
75740;BME280;64357;51.344;6.550;2022-12-18T14:21:25;102029.50;;;-0.66;65.57
75740;BME280;64357;51.344;6.550;2022-12-18T14:24:13;102061.19;;;-0.66;65.26
75740;BME280;64357;51.344;6.550;2022-12-18T14:26:40;102046.06;;;-0.72;65.03
75740;BME280;64357;51.344;6.550;2022-12-18T14:29:25;102048.59;;;-0.72;64.79
75740;BME280;64357;51.344;6.550;2022-12-18T14:32:05;102065.00;;;-0.74;64.85
75740;BME280;64357;51.344;6.550;2022-12-18T14:34:33;102058.06;;;-0.81;65.59
75740;BME280;64357;51.344;6.550;2022-12-18T14:37:07;102062.63;;;-0.78;65.05
75740;BME280;64357;51.344;6.550;2022-12-18T14:39:34;102065.38;;;-0.76;65.37
75740;BME280;64357;51.344;6.550;2022-12-18T14:41:59;102046.19;;;-0.82;65.57
75740;BME280;64357;51.344;6.550;2022-12-18T14:44:25;102042.75;;;-0.82;65.33
75740;BME280;64357;51.344;6.550;2022-12-18T14:46:50;102035.41;;;-0.86;65.97
75740;BME280;64357;51.344;6.550;2022-12-18T14:49:33;102043.59;;;-0.87;66.18
75740;BME280;64357;51.344;6.550;2022-12-18T14:52:13;102038.59;;;-0.87;65.34